createdAt,value
2019-01-24T00:00:54.371Z,-1.27
2019-01-24T00:01:54.619Z,-1.24
2019-01-24T00:02:55.595Z,-1.25
2019-01-24T00:03:54.757Z,-1.24
2019-01-24T00:04:54.789Z,-1.23
2019-01-24T00:05:54.323Z,-1.22
2019-01-24T00:06:54.488Z,-1.22
2019-01-24T00:07:55.233Z,-1.23
2019-01-24T00:08:54.472Z,-1.24
2019-01-24T00:09:54.468Z,-1.27
2019-01-24T00:10:56.287Z,-1.28
2019-01-24T00:11:54.738Z,-1.26
2019-01-24T00:12:54.363Z,-1.26
2019-01-24T00:13:54.414Z,-1.22
2019-01-24T00:14:54.467Z,-1.21
2019-01-24T00:15:54.407Z,-1.17
2019-01-24T00:16:54.970Z,-1.17
2019-01-24T00:17:54.393Z,-1.18
2019-01-24T00:18:54.455Z,-1.16
2019-01-24T00:19:54.542Z,-1.16
2019-01-24T00:20:54.382Z,-1.14
2019-01-24T00:21:56.136Z,-1.11
2019-01-24T00:22:54.587Z,-1.11
2019-01-24T00:23:55.012Z,-1.14
2019-01-24T00:24:54.345Z,-1.12
2019-01-24T00:25:54.295Z,-1.13
2019-01-24T00:26:54.315Z,-1.11
2019-01-24T00:27:54.329Z,-1.11
2019-01-24T00:28:54.449Z,-1.1
2019-01-24T00:29:54.969Z,-1.14
2019-01-24T00:30:54.410Z,-1.14
2019-01-24T00:31:54.311Z,-1.19
2019-01-24T00:32:54.396Z,-1.19
2019-01-24T00:33:54.462Z,-1.22
2019-01-24T00:34:54.295Z,-1.21
2019-01-24T00:35:54.560Z,-1.21
2019-01-24T00:36:54.302Z,-1.22
2019-01-24T00:37:54.564Z,-1.21
2019-01-24T00:38:54.472Z,-1.21
2019-01-24T00:39:54.651Z,-1.21
2019-01-24T00:40:54.521Z,-1.21
2019-01-24T00:41:54.776Z,-1.21
2019-01-24T00:42:54.835Z,-1.19
2019-01-24T00:43:54.755Z,-1.2
2019-01-24T00:44:54.539Z,-1.17
2019-01-24T00:45:54.289Z,-1.16
2019-01-24T00:46:54.602Z,-1.14
2019-01-24T00:47:54.583Z,-1.15
2019-01-24T00:48:54.666Z,-1.1
2019-01-24T00:49:55.213Z,-1.1
2019-01-24T00:50:54.986Z,-1.09
2019-01-24T00:51:54.435Z,-1.06
2019-01-24T00:52:54.275Z,-1.1
2019-01-24T00:53:54.780Z,-1.12
2019-01-24T00:54:54.611Z,-1.12
2019-01-24T00:55:54.310Z,-1.12
2019-01-24T00:56:54.327Z,-1.16
2019-01-24T00:57:54.648Z,-1.13
2019-01-24T00:58:54.354Z,-1.16
2019-01-24T00:59:54.280Z,-1.14
2019-01-24T01:00:54.389Z,-1.16
2019-01-24T01:01:54.531Z,-1.24
2019-01-24T01:02:54.303Z,-1.23
2019-01-24T01:03:54.576Z,-1.25
2019-01-24T01:04:54.495Z,-1.28
2019-01-24T01:05:54.416Z,-1.29
2019-01-24T01:06:54.582Z,-1.29
2019-01-24T01:07:54.535Z,-1.26
2019-01-24T01:08:54.270Z,-1.27
2019-01-24T01:09:54.429Z,-1.3
2019-01-24T01:10:54.437Z,-1.3
2019-01-24T01:11:54.266Z,-1.3
2019-01-24T01:12:54.347Z,-1.29
2019-01-24T01:13:54.327Z,-1.31
2019-01-24T01:14:54.408Z,-1.31
2019-01-24T01:15:54.351Z,-1.32
2019-01-24T01:16:54.206Z,-1.33
2019-01-24T01:17:54.233Z,-1.35
2019-01-24T01:18:54.309Z,-1.34
2019-01-24T01:19:54.268Z,-1.33
2019-01-24T01:20:54.252Z,-1.32
2019-01-24T01:21:54.385Z,-1.36
2019-01-24T01:22:54.392Z,-1.37
2019-01-24T01:23:54.221Z,-1.39
2019-01-24T01:24:54.625Z,-1.38
2019-01-24T01:25:54.316Z,-1.41
2019-01-24T01:26:54.262Z,-1.39
2019-01-24T01:27:54.207Z,-1.38
2019-01-24T01:28:55.303Z,-1.4
2019-01-24T01:29:54.315Z,-1.41
2019-01-24T01:30:54.201Z,-1.43
2019-01-24T01:31:54.202Z,-1.41
2019-01-24T01:32:54.235Z,-1.42
2019-01-24T01:33:54.200Z,-1.43
2019-01-24T01:34:54.296Z,-1.43
2019-01-24T01:35:54.211Z,-1.45
2019-01-24T01:36:54.186Z,-1.43
2019-01-24T01:37:54.519Z,-1.49
2019-01-24T01:38:54.232Z,-1.48
2019-01-24T01:39:54.320Z,-1.53
2019-01-24T01:40:54.198Z,-1.58
2019-01-24T01:41:54.807Z,-1.56
2019-01-24T01:42:54.430Z,-1.59
2019-01-24T01:43:54.194Z,-1.55
2019-01-24T01:44:54.235Z,-1.57
2019-01-24T01:45:54.214Z,-1.54
2019-01-24T01:46:54.239Z,-1.56
2019-01-24T01:47:55.925Z,-1.55
2019-01-24T01:48:54.251Z,-1.55
2019-01-24T01:49:54.371Z,-1.55
2019-01-24T01:50:54.175Z,-1.56
2019-01-24T01:51:54.552Z,-1.55
2019-01-24T01:52:54.221Z,-1.54
2019-01-24T01:53:54.368Z,-1.54
2019-01-24T01:54:54.822Z,-1.52
2019-01-24T01:55:55.045Z,-1.52
2019-01-24T01:56:54.320Z,-1.51
2019-01-24T01:57:55.299Z,-1.5
2019-01-24T01:58:55.024Z,-1.52
2019-01-24T01:59:55.405Z,-1.53
2019-01-24T02:00:54.264Z,-1.51
2019-01-24T02:01:54.211Z,-1.53
2019-01-24T02:02:54.715Z,-1.51
2019-01-24T02:03:54.382Z,-1.47
2019-01-24T02:04:54.224Z,-1.46
2019-01-24T02:05:54.214Z,-1.49
2019-01-24T02:06:54.670Z,-1.46
2019-01-24T02:07:54.407Z,-1.47
2019-01-24T02:08:54.175Z,-1.46
2019-01-24T02:09:54.406Z,-1.41
2019-01-24T02:10:54.435Z,-1.42
2019-01-24T02:11:54.446Z,-1.37
2019-01-24T02:12:54.171Z,-1.35
2019-01-24T02:13:54.236Z,-1.33
2019-01-24T02:14:54.454Z,-1.32
2019-01-24T02:15:54.424Z,-1.33
2019-01-24T02:16:54.207Z,-1.3
2019-01-24T02:17:54.222Z,-1.29
2019-01-24T02:18:54.261Z,-1.3
2019-01-24T02:19:54.151Z,-1.33
2019-01-24T02:20:54.609Z,-1.43
2019-01-24T02:21:54.695Z,-1.41
2019-01-24T02:22:54.295Z,-1.41
2019-01-24T02:23:54.157Z,-1.4
2019-01-24T02:24:54.366Z,-1.42
2019-01-24T02:25:54.247Z,-1.38
2019-01-24T02:26:54.126Z,-1.37
2019-01-24T02:27:54.433Z,-1.36
2019-01-24T02:28:54.360Z,-1.37
2019-01-24T02:29:54.453Z,-1.34
2019-01-24T02:30:54.357Z,-1.33
2019-01-24T02:31:54.565Z,-1.31
2019-01-24T02:32:54.731Z,-1.31
2019-01-24T02:33:54.202Z,-1.38
2019-01-24T02:34:54.596Z,-1.37
2019-01-24T02:35:54.147Z,-1.37
2019-01-24T02:36:54.291Z,-1.35
2019-01-24T02:37:54.306Z,-1.34
2019-01-24T02:38:54.253Z,-1.33
2019-01-24T02:39:54.356Z,-1.3
2019-01-24T02:40:54.440Z,-1.3
2019-01-24T02:41:54.431Z,-1.29
2019-01-24T02:42:54.523Z,-1.29
2019-01-24T02:43:54.442Z,-1.28
2019-01-24T02:44:54.508Z,-1.27
2019-01-24T02:45:54.243Z,-1.24
2019-01-24T02:46:54.097Z,-1.26
2019-01-24T02:47:54.698Z,-1.23
2019-01-24T02:48:54.219Z,-1.24
2019-01-24T02:49:55.014Z,-1.31
2019-01-24T02:50:54.409Z,-1.29
2019-01-24T02:51:54.415Z,-1.31
2019-01-24T02:52:54.165Z,-1.29
2019-01-24T02:53:54.546Z,-1.33
2019-01-24T02:54:54.624Z,-1.3
2019-01-24T02:55:54.954Z,-1.31
2019-01-24T02:56:54.146Z,-1.32
2019-01-24T02:57:54.045Z,-1.29
2019-01-24T02:58:54.416Z,-1.29
2019-01-24T02:59:54.372Z,-1.29
2019-01-24T03:00:54.051Z,-1.34
2019-01-24T03:01:54.068Z,-1.3
2019-01-24T03:02:54.242Z,-1.33
2019-01-24T03:03:54.456Z,-1.31
2019-01-24T03:04:57.498Z,-1.32
2019-01-24T03:05:54.126Z,-1.32
2019-01-24T03:06:54.251Z,-1.3
2019-01-24T03:07:54.113Z,-1.29
2019-01-24T03:08:54.029Z,-1.33
2019-01-24T03:09:55.613Z,-1.31
2019-01-24T03:10:54.114Z,-1.32
2019-01-24T03:11:54.141Z,-1.33
2019-01-24T03:12:54.233Z,-1.33
2019-01-24T03:13:54.082Z,-1.3
2019-01-24T03:14:54.141Z,-1.29
2019-01-24T03:15:54.196Z,-1.28
2019-01-24T03:16:54.335Z,-1.28
2019-01-24T03:17:54.119Z,-1.24
2019-01-24T03:18:54.395Z,-1.23
2019-01-24T03:19:54.333Z,-1.23
2019-01-24T03:20:54.045Z,-1.27
2019-01-24T03:21:54.256Z,-1.31
2019-01-24T03:22:54.388Z,-1.29
2019-01-24T03:23:54.065Z,-1.29
2019-01-24T03:24:54.313Z,-1.29
2019-01-24T03:25:54.096Z,-1.31
2019-01-24T03:26:54.025Z,-1.32
2019-01-24T03:27:54.141Z,-1.34
2019-01-24T03:28:54.285Z,-1.33
2019-01-24T03:29:54.190Z,-1.35
2019-01-24T03:30:54.357Z,-1.37
2019-01-24T03:31:54.118Z,-1.42
2019-01-24T03:32:54.552Z,-1.4
2019-01-24T03:33:54.202Z,-1.39
2019-01-24T03:34:54.282Z,-1.39
2019-01-24T03:35:54.289Z,-1.46
2019-01-24T03:36:54.136Z,-1.5
2019-01-24T03:37:53.835Z,-1.49
2019-01-24T03:38:54.550Z,-1.49
2019-01-24T03:39:54.207Z,-1.54
2019-01-24T03:40:54.444Z,-1.55
2019-01-24T03:41:54.067Z,-1.54
2019-01-24T03:42:54.092Z,-1.5
2019-01-24T03:43:54.061Z,-1.49
2019-01-24T03:44:54.285Z,-1.5
2019-01-24T03:45:54.009Z,-1.54
2019-01-24T03:46:54.001Z,-1.51
2019-01-24T03:47:54.177Z,-1.51
2019-01-24T03:48:53.981Z,-1.51
2019-01-24T03:49:54.091Z,-1.52
2019-01-24T03:50:54.326Z,-1.52
2019-01-24T03:51:54.545Z,-1.52
2019-01-24T03:52:54.092Z,-1.54
2019-01-24T03:53:54.346Z,-1.51
2019-01-24T03:54:54.178Z,-1.5
2019-01-24T03:55:54.164Z,-1.47
2019-01-24T03:56:54.067Z,-1.47
2019-01-24T03:57:54.257Z,-1.47
2019-01-24T03:58:54.155Z,-1.46
2019-01-24T03:59:54.403Z,-1.45
2019-01-24T04:00:54.000Z,-1.42
2019-01-24T04:01:54.073Z,-1.42
2019-01-24T04:02:54.017Z,-1.41
2019-01-24T04:03:53.993Z,-1.41
2019-01-24T04:04:53.996Z,-1.38
2019-01-24T04:05:54.200Z,-1.4
2019-01-24T04:06:54.433Z,-1.39
2019-01-24T04:07:54.856Z,-1.48
2019-01-24T04:08:54.221Z,-1.58
2019-01-24T04:09:54.263Z,-1.58
2019-01-24T04:10:55.056Z,-1.57
2019-01-24T04:11:54.277Z,-1.57
2019-01-24T04:12:54.005Z,-1.56
2019-01-24T04:13:54.300Z,-1.62
2019-01-24T04:14:54.461Z,-1.62
2019-01-24T04:15:54.155Z,-1.6
2019-01-24T04:16:54.208Z,-1.62
2019-01-24T04:17:55.335Z,-1.61
2019-01-24T04:18:54.280Z,-1.58
2019-01-24T04:19:54.280Z,-1.64
2019-01-24T04:20:54.437Z,-1.62
2019-01-24T04:21:54.327Z,-1.61
2019-01-24T04:22:53.920Z,-1.6
2019-01-24T04:23:55.722Z,-1.6
2019-01-24T04:24:53.954Z,-1.6
2019-01-24T04:25:53.935Z,-1.58
2019-01-24T04:26:54.007Z,-1.6
2019-01-24T04:27:54.087Z,-1.59
2019-01-24T04:28:54.128Z,-1.59
2019-01-24T04:29:54.274Z,-1.55
2019-01-24T04:30:54.175Z,-1.57
2019-01-24T04:31:54.180Z,-1.55
2019-01-24T04:32:55.929Z,-1.54
2019-01-24T04:33:54.583Z,-1.61
2019-01-24T04:34:55.613Z,-1.64
2019-01-24T04:35:54.191Z,-1.62
2019-01-24T04:36:53.993Z,-1.6
2019-01-24T04:37:53.920Z,-1.62
2019-01-24T04:38:53.925Z,-1.63
2019-01-24T04:39:53.960Z,-1.65
2019-01-24T04:40:53.915Z,-1.66
2019-01-24T04:41:53.940Z,-1.73
2019-01-24T04:42:53.905Z,-1.73
2019-01-24T04:43:53.917Z,-1.67
2019-01-24T04:45:53.960Z,-1.69
2019-01-24T04:46:54.031Z,-1.69
2019-01-24T04:47:54.270Z,-1.66
2019-01-24T04:48:53.947Z,-1.62
2019-01-24T04:49:54.421Z,-1.62
2019-01-24T04:50:53.862Z,-1.61
2019-01-24T04:51:53.953Z,-1.6
2019-01-24T04:52:53.898Z,-1.64
2019-01-24T04:53:53.993Z,-1.64
2019-01-24T04:54:54.352Z,-1.6
2019-01-24T04:55:53.921Z,-1.62
2019-01-24T04:56:54.010Z,-1.65
2019-01-24T04:57:55.394Z,-1.64
2019-01-24T04:58:53.900Z,-1.62
2019-01-24T04:59:54.334Z,-1.67
2019-01-24T05:00:54.211Z,-1.65
2019-01-24T05:01:53.966Z,-1.64
2019-01-24T05:02:54.250Z,-1.62
2019-01-24T05:03:53.918Z,-1.6
2019-01-24T05:04:53.887Z,-1.6
2019-01-24T05:05:53.931Z,-1.6
2019-01-24T05:06:53.892Z,-1.6
2019-01-24T05:07:54.132Z,-1.6
2019-01-24T05:08:53.936Z,-1.57
2019-01-24T05:09:54.215Z,-1.63
2019-01-24T05:10:53.958Z,-1.62
2019-01-24T05:11:53.912Z,-1.68
2019-01-24T05:12:53.992Z,-1.65
2019-01-24T05:13:54.385Z,-1.68
2019-01-24T05:14:54.286Z,-1.68
2019-01-24T05:15:53.906Z,-1.65
2019-01-24T05:16:55.471Z,-1.67
2019-01-24T05:17:53.919Z,-1.69
2019-01-24T05:18:54.294Z,-1.7
2019-01-24T05:19:54.606Z,-1.72
2019-01-24T05:20:53.945Z,-1.74
2019-01-24T05:21:54.022Z,-1.72
2019-01-24T05:22:54.357Z,-1.73
2019-01-24T05:23:54.341Z,-1.72
2019-01-24T05:24:54.099Z,-1.71
2019-01-24T05:25:54.475Z,-1.71
2019-01-24T05:26:54.134Z,-1.7
2019-01-24T05:27:54.094Z,-1.69
2019-01-24T05:28:54.366Z,-1.74
2019-01-24T05:29:53.989Z,-1.75
2019-01-24T05:30:54.274Z,-1.74
2019-01-24T05:31:53.794Z,-1.72
2019-01-24T05:32:55.761Z,-1.71
2019-01-24T05:33:53.986Z,-1.7
2019-01-24T05:34:54.475Z,-1.72
2019-01-24T05:35:54.214Z,-1.73
2019-01-24T05:36:53.960Z,-1.71
2019-01-24T05:37:54.734Z,-1.71
2019-01-24T05:38:53.898Z,-1.74
2019-01-24T05:39:54.005Z,-1.73
2019-01-24T05:40:53.977Z,-1.73
2019-01-24T05:41:53.841Z,-1.73
2019-01-24T05:42:53.953Z,-1.75
2019-01-24T05:43:54.002Z,-1.73
2019-01-24T05:44:54.734Z,-1.74
2019-01-24T05:45:53.791Z,-1.78
2019-01-24T05:46:54.042Z,-1.77
2019-01-24T05:47:53.847Z,-1.77
2019-01-24T05:48:53.982Z,-1.77
2019-01-24T05:49:53.900Z,-1.76
2019-01-24T05:50:53.945Z,-1.75
2019-01-24T05:51:54.473Z,-1.77
2019-01-24T05:52:53.949Z,-1.76
2019-01-24T05:53:53.812Z,-1.77
2019-01-24T05:54:54.239Z,-1.74
2019-01-24T05:55:53.798Z,-1.77
2019-01-24T05:56:53.897Z,-1.76
2019-01-24T05:57:54.108Z,-1.74
2019-01-24T05:58:53.949Z,-1.73
2019-01-24T05:59:53.957Z,-1.73
2019-01-24T06:00:55.491Z,-1.72
2019-01-24T06:01:53.798Z,-1.74
2019-01-24T06:02:54.046Z,-1.74
2019-01-24T06:03:53.790Z,-1.74
2019-01-24T06:04:54.135Z,-1.74
2019-01-24T06:05:53.796Z,-1.73
2019-01-24T06:06:53.820Z,-1.7
2019-01-24T06:07:54.064Z,-1.7
2019-01-24T06:08:55.701Z,-1.7
2019-01-24T06:09:53.787Z,-1.71
2019-01-24T06:10:53.898Z,-1.69
2019-01-24T06:11:54.086Z,-1.68
2019-01-24T06:12:55.569Z,-1.69
2019-01-24T06:13:53.853Z,-1.69
2019-01-24T06:14:54.029Z,-1.67
2019-01-24T06:15:54.752Z,-1.73
2019-01-24T06:16:55.420Z,-1.73
2019-01-24T06:17:53.791Z,-1.74
2019-01-24T06:18:55.331Z,-1.74
2019-01-24T06:19:53.913Z,-1.74
2019-01-24T06:20:55.157Z,-1.75
2019-01-24T06:21:53.767Z,-1.74
2019-01-24T06:22:53.803Z,-1.76
2019-01-24T06:23:53.783Z,-1.77
2019-01-24T06:24:53.944Z,-1.76
2019-01-24T06:25:53.853Z,-1.75
2019-01-24T06:26:53.930Z,-1.8
2019-01-24T06:27:54.091Z,-1.79
2019-01-24T06:28:53.717Z,-1.8
2019-01-24T06:29:53.773Z,-1.83
2019-01-24T06:30:56.725Z,-1.8
2019-01-24T06:31:53.717Z,-1.79
2019-01-24T06:32:53.774Z,-1.8
2019-01-24T06:33:53.783Z,-1.79
2019-01-24T06:34:53.912Z,-1.81
2019-01-24T06:35:53.767Z,-1.81
2019-01-24T06:36:54.523Z,-1.84
2019-01-24T06:37:53.833Z,-1.83
2019-01-24T06:38:53.760Z,-1.83
2019-01-24T06:39:53.717Z,-1.8
2019-01-24T06:40:53.776Z,-1.82
2019-01-24T06:41:53.790Z,-1.79
2019-01-24T06:42:54.153Z,-1.79
2019-01-24T06:43:53.798Z,-1.8
2019-01-24T06:44:53.769Z,-1.79
2019-01-24T06:45:53.865Z,-1.82
2019-01-24T06:46:53.808Z,-1.8
2019-01-24T06:47:53.799Z,-1.8
2019-01-24T06:48:53.834Z,-1.79
2019-01-24T06:49:54.046Z,-1.79
2019-01-24T06:50:53.733Z,-1.8
2019-01-24T06:51:55.335Z,-1.82
2019-01-24T06:52:55.501Z,-1.82
2019-01-24T06:53:53.904Z,-1.8
2019-01-24T06:54:54.253Z,-1.82
2019-01-24T06:55:53.943Z,-1.83
2019-01-24T06:56:53.979Z,-1.82
2019-01-24T06:57:53.736Z,-1.84
2019-01-24T06:58:53.708Z,-1.84
2019-01-24T06:59:54.381Z,-1.81
2019-01-24T07:00:54.711Z,-1.8
2019-01-24T07:01:54.138Z,-1.79
2019-01-24T07:02:54.951Z,-1.79
2019-01-24T07:03:53.993Z,-1.76
2019-01-24T07:04:53.904Z,-1.78
2019-01-24T07:05:55.869Z,-1.78
2019-01-24T07:06:53.704Z,-1.77
2019-01-24T07:07:53.724Z,-1.75
2019-01-24T07:08:53.820Z,-1.77
2019-01-24T07:09:53.715Z,-1.77
2019-01-24T07:10:53.904Z,-1.76
2019-01-24T07:11:53.894Z,-1.75
2019-01-24T07:12:53.740Z,-1.75
2019-01-24T07:13:54.008Z,-1.77
2019-01-24T07:14:53.637Z,-1.75
2019-01-24T07:15:53.776Z,-1.76
2019-01-24T07:16:53.788Z,-1.78
2019-01-24T07:17:53.968Z,-1.81
2019-01-24T07:18:54.116Z,-1.81
2019-01-24T07:19:53.774Z,-1.81
2019-01-24T07:20:53.730Z,-1.78
2019-01-24T07:21:54.979Z,-1.79
2019-01-24T07:22:53.673Z,-1.78
2019-01-24T07:23:53.976Z,-1.75
2019-01-24T07:24:53.613Z,-1.76
2019-01-24T07:25:54.397Z,-1.78
2019-01-24T07:26:53.662Z,-1.78
2019-01-24T07:27:54.926Z,-1.78
2019-01-24T07:28:53.625Z,-1.78
2019-01-24T07:29:54.486Z,-1.78
2019-01-24T07:30:55.197Z,-1.77
2019-01-24T07:31:53.817Z,-1.74
2019-01-24T07:32:53.914Z,-1.74
2019-01-24T07:33:53.820Z,-1.74
2019-01-24T07:34:53.634Z,-1.74
2019-01-24T07:35:53.840Z,-1.73
2019-01-24T07:36:54.423Z,-1.72
2019-01-24T07:37:53.618Z,-1.73
2019-01-24T07:38:53.630Z,-1.73
2019-01-24T07:39:53.759Z,-1.73
2019-01-24T07:40:53.690Z,-1.72
2019-01-24T07:41:53.754Z,-1.72
2019-01-24T07:42:53.765Z,-1.71
2019-01-24T07:43:53.867Z,-1.73
2019-01-24T07:44:53.881Z,-1.74
2019-01-24T07:45:53.659Z,-1.78
2019-01-24T07:46:54.459Z,-1.75
2019-01-24T07:47:53.841Z,-1.77
2019-01-24T07:48:53.746Z,-1.74
2019-01-24T07:49:53.932Z,-1.76
2019-01-24T07:50:53.643Z,-1.78
2019-01-24T07:51:53.859Z,-1.75
2019-01-24T07:52:54.029Z,-1.73
2019-01-24T07:53:53.790Z,-1.73
2019-01-24T07:54:53.642Z,-1.75
2019-01-24T07:55:53.647Z,-1.74
2019-01-24T07:56:53.859Z,-1.73
2019-01-24T07:57:53.635Z,-1.73
2019-01-24T07:58:55.090Z,-1.72
2019-01-24T07:59:53.618Z,-1.7
2019-01-24T08:00:53.841Z,-1.72
2019-01-24T08:01:53.836Z,-1.71
2019-01-24T08:02:53.742Z,-1.68
2019-01-24T08:03:53.740Z,-1.68
2019-01-24T08:04:53.640Z,-1.67
2019-01-24T08:05:53.870Z,-1.68
2019-01-24T08:06:53.610Z,-1.68
2019-01-24T08:07:53.584Z,-1.68
2019-01-24T08:08:53.618Z,-1.74
2019-01-24T08:09:53.587Z,-1.72
2019-01-24T08:10:53.741Z,-1.7
2019-01-24T08:11:53.660Z,-1.76
2019-01-24T08:12:53.566Z,-1.81
2019-01-24T08:13:53.646Z,-1.8
2019-01-24T08:14:53.725Z,-1.77
2019-01-24T08:15:53.612Z,-1.75
2019-01-24T08:16:53.661Z,-1.78
2019-01-24T08:17:53.586Z,-1.76
2019-01-24T08:18:53.591Z,-1.76
2019-01-24T08:19:53.615Z,-1.72
2019-01-24T08:20:53.583Z,-1.8
2019-01-24T08:21:53.807Z,-1.82
2019-01-24T08:22:53.589Z,-1.81
2019-01-24T08:23:53.603Z,-1.84
2019-01-24T08:24:53.587Z,-1.85
2019-01-24T08:25:53.889Z,-1.84
2019-01-24T08:26:53.631Z,-1.9
2019-01-24T08:27:55.367Z,-1.89
2019-01-24T08:28:53.623Z,-1.86
2019-01-24T08:29:56.046Z,-1.87
2019-01-24T08:30:54.198Z,-1.92
2019-01-24T08:31:53.622Z,-1.88
2019-01-24T08:32:53.833Z,-1.91
2019-01-24T08:33:53.971Z,-1.9
2019-01-24T08:34:53.755Z,-1.91
2019-01-24T08:35:53.674Z,-1.92
2019-01-24T08:36:53.517Z,-1.98
2019-01-24T08:37:53.571Z,-2.01
2019-01-24T08:39:00.153Z,-2.11
2019-01-24T08:39:53.582Z,-2.08
2019-01-24T08:40:53.847Z,-2.07
2019-01-24T08:41:55.247Z,-2.05
2019-01-24T08:42:53.720Z,-2.06
2019-01-24T08:43:53.829Z,-2.14
2019-01-24T08:44:53.497Z,-2.13
2019-01-24T08:45:53.638Z,-2.11
2019-01-24T08:46:53.551Z,-2.15
2019-01-24T08:47:53.538Z,-2.15
2019-01-24T08:48:54.345Z,-2.1
2019-01-24T08:49:53.740Z,-2.06
2019-01-24T08:50:53.526Z,-2.1
2019-01-24T08:51:53.639Z,-2.07
2019-01-24T08:52:53.727Z,-2.03
2019-01-24T08:53:53.584Z,-1.99
2019-01-24T08:54:53.852Z,-2.08
2019-01-24T08:55:53.780Z,-2.07
2019-01-24T08:56:53.723Z,-2.07
2019-01-24T08:57:54.179Z,-2.03
2019-01-24T08:58:55.378Z,-2
2019-01-24T08:59:53.605Z,-1.99
2019-01-24T09:00:53.512Z,-2.04
2019-01-24T09:01:53.656Z,-1.97
2019-01-24T09:02:53.628Z,-1.96
2019-01-24T09:03:53.892Z,-1.94
2019-01-24T09:04:53.638Z,-1.89
2019-01-24T09:05:54.030Z,-1.86
2019-01-24T09:06:53.811Z,-1.88
2019-01-24T09:07:53.620Z,-1.85
2019-01-24T09:08:53.536Z,-1.83
2019-01-24T09:09:53.876Z,-1.8
2019-01-24T09:10:53.647Z,-1.83
2019-01-24T09:11:53.747Z,-1.8
2019-01-24T09:12:53.638Z,-1.93
2019-01-24T09:13:54.104Z,-1.96
2019-01-24T09:14:53.839Z,-1.94
2019-01-24T09:15:53.806Z,-1.96
2019-01-24T09:16:53.543Z,-1.98
2019-01-24T09:17:53.661Z,-1.95
2019-01-24T09:18:53.472Z,-1.92
2019-01-24T09:19:54.414Z,-1.89
2019-01-24T09:20:53.738Z,-1.88
2019-01-24T09:21:53.651Z,-1.84
2019-01-24T09:22:55.900Z,-1.86
2019-01-24T09:23:53.570Z,-1.83
2019-01-24T09:24:53.459Z,-1.8
2019-01-24T09:25:53.695Z,-1.83
2019-01-24T09:26:53.759Z,-1.83
2019-01-24T09:27:53.426Z,-1.87
2019-01-24T09:28:55.277Z,-1.91
2019-01-24T09:29:53.503Z,-1.86
2019-01-24T09:30:55.081Z,-1.82
2019-01-24T09:31:53.554Z,-1.79
2019-01-24T09:32:53.538Z,-1.74
2019-01-24T09:33:53.544Z,-1.7
2019-01-24T09:34:53.586Z,-1.63
2019-01-24T09:35:53.453Z,-1.61
2019-01-24T09:36:53.600Z,-1.7
2019-01-24T09:37:53.534Z,-1.74
2019-01-24T09:38:55.251Z,-1.78
2019-01-24T09:39:55.253Z,-1.79
2019-01-24T09:40:53.864Z,-1.77
2019-01-24T09:41:53.729Z,-1.82
2019-01-24T09:42:53.656Z,-1.75
2019-01-24T09:43:53.589Z,-1.79
2019-01-24T09:44:53.516Z,-1.74
2019-01-24T09:45:53.692Z,-1.73
2019-01-24T09:46:53.527Z,-1.74
2019-01-24T09:47:53.640Z,-1.76
2019-01-24T09:48:53.493Z,-1.72
2019-01-24T09:49:53.503Z,-1.67
2019-01-24T09:50:53.396Z,-1.64
2019-01-24T09:51:53.544Z,-1.61
2019-01-24T09:52:53.609Z,-1.6
2019-01-24T09:53:53.371Z,-1.57
2019-01-24T09:54:53.476Z,-1.55
2019-01-24T09:55:53.387Z,-1.53
2019-01-24T09:56:53.396Z,-1.53
2019-01-24T09:57:53.459Z,-1.52
2019-01-24T09:58:53.514Z,-1.51
2019-01-24T09:59:54.309Z,-1.52
2019-01-24T10:00:53.353Z,-1.49
2019-01-24T10:01:53.377Z,-1.47
2019-01-24T10:02:53.574Z,-1.48
2019-01-24T10:03:53.620Z,-1.47
2019-01-24T10:04:53.412Z,-1.46
2019-01-24T10:05:53.386Z,-1.43
2019-01-24T10:06:53.989Z,-1.48
2019-01-24T10:07:55.117Z,-1.56
2019-01-24T10:08:54.563Z,-1.5
2019-01-24T10:09:53.450Z,-1.5
2019-01-24T10:10:53.720Z,-1.52
2019-01-24T10:11:54.917Z,-1.48
2019-01-24T10:13:01.019Z,-1.5
2019-01-24T10:13:53.533Z,-1.52
2019-01-24T10:14:53.634Z,-1.59
2019-01-24T10:15:53.615Z,-1.64
2019-01-24T10:16:53.509Z,-1.56
2019-01-24T10:17:53.832Z,-1.54
2019-01-24T10:18:53.327Z,-1.49
2019-01-24T10:19:53.608Z,-1.46
2019-01-24T10:20:53.475Z,-1.47
2019-01-24T10:21:53.923Z,-1.53
2019-01-24T10:22:53.925Z,-1.48
2019-01-24T10:23:53.497Z,-1.47
2019-01-24T10:26:53.957Z,-1.38
2019-01-24T10:27:54.799Z,-1.34
2019-01-24T10:28:54.452Z,-1.44
2019-01-24T10:29:53.689Z,-1.43
2019-01-24T10:30:56.673Z,-1.47
2019-01-24T10:32:54.572Z,-1.52
2019-01-24T10:33:54.556Z,-1.55
2019-01-24T10:34:53.399Z,-1.56
2019-01-24T10:35:53.369Z,-1.55
2019-01-24T10:36:55.297Z,-1.51
2019-01-24T10:37:54.679Z,-1.56
2019-01-24T10:38:53.554Z,-1.65
2019-01-24T10:39:55.453Z,-1.62
2019-01-24T10:40:53.638Z,-1.59
2019-01-24T10:41:53.626Z,-1.52
2019-01-24T10:42:53.523Z,-1.52
2019-01-24T10:44:01.709Z,-1.53
2019-01-24T10:44:53.470Z,-1.55
2019-01-24T10:45:53.576Z,-1.57
2019-01-24T10:46:53.793Z,-1.56
2019-01-24T10:47:56.370Z,-1.59
2019-01-24T10:49:00.738Z,-1.61
2019-01-24T10:49:55.166Z,-1.59
2019-01-24T10:51:53.523Z,-1.61
2019-01-24T10:52:53.832Z,-1.6
2019-01-24T10:53:54.836Z,-1.54
2019-01-24T10:54:58.152Z,-1.55
2019-01-24T10:55:55.078Z,-1.55
2019-01-24T10:56:56.329Z,-1.58
2019-01-24T10:57:54.283Z,-1.53
2019-01-24T10:58:53.354Z,-1.5
2019-01-24T10:59:53.544Z,-1.5
2019-01-24T11:00:53.499Z,-1.51
2019-01-24T11:01:53.392Z,-1.48
2019-01-24T11:02:53.418Z,-1.46
2019-01-24T11:03:53.346Z,-1.45
2019-01-24T11:04:53.511Z,-1.48
2019-01-24T11:05:53.435Z,-1.44
2019-01-24T11:06:54.356Z,-1.41
2019-01-24T11:07:53.418Z,-1.39
2019-01-24T11:08:53.537Z,-1.38
2019-01-24T11:09:53.576Z,-1.34
2019-01-24T11:10:53.374Z,-1.31
2019-01-24T11:11:53.892Z,-1.31
2019-01-24T11:12:53.316Z,-1.28
2019-01-24T11:13:53.341Z,-1.25
2019-01-24T11:14:53.629Z,-1.21
2019-01-24T11:15:53.418Z,-1.2
2019-01-24T11:16:53.621Z,-1.25
2019-01-24T11:17:55.131Z,-1.24
2019-01-24T11:18:53.561Z,-1.23
2019-01-24T11:19:53.306Z,-1.22
2019-01-24T11:20:53.469Z,-1.31
2019-01-24T11:21:53.407Z,-1.25
2019-01-24T11:22:53.448Z,-1.31
2019-01-24T11:23:53.534Z,-1.34
2019-01-24T11:25:53.532Z,-1.29
2019-01-24T11:26:53.382Z,-1.27
2019-01-24T11:27:53.356Z,-1.31
2019-01-24T11:28:53.316Z,-1.28
2019-01-24T11:29:53.249Z,-1.28
2019-01-24T11:30:53.493Z,-1.35
2019-01-24T11:31:53.276Z,-1.33
2019-01-24T11:32:53.269Z,-1.3
2019-01-24T11:33:53.359Z,-1.28
2019-01-24T11:35:53.288Z,-1.21
2019-01-24T11:36:57.685Z,-1.2
2019-01-24T11:37:54.339Z,-1.24
2019-01-24T11:38:56.822Z,-1.31
2019-01-24T11:39:53.395Z,-1.37
2019-01-24T11:40:53.430Z,-1.33
2019-01-24T11:41:53.256Z,-1.35
2019-01-24T11:42:53.429Z,-1.35
2019-01-24T11:43:53.254Z,-1.31
2019-01-24T11:44:53.250Z,-1.25
2019-01-24T11:45:53.659Z,-1.23
2019-01-24T11:46:53.256Z,-1.34
2019-01-24T11:47:53.524Z,-1.4
2019-01-24T11:48:53.611Z,-1.36
2019-01-24T11:49:53.238Z,-1.36
2019-01-24T11:50:53.305Z,-1.36
2019-01-24T11:51:53.681Z,-1.36
2019-01-24T11:52:53.306Z,-1.32
2019-01-24T11:53:53.600Z,-1.29
2019-01-24T11:54:53.285Z,-1.3
2019-01-24T11:55:53.203Z,-1.39
2019-01-24T11:56:53.628Z,-1.31
2019-01-24T11:57:53.346Z,-1.34
2019-01-24T11:58:53.394Z,-1.35
2019-01-24T11:59:53.224Z,-1.34
2019-01-24T12:00:53.397Z,-1.29
2019-01-24T12:01:53.312Z,-1.25
2019-01-24T12:02:53.405Z,-1.22
2019-01-24T12:03:53.216Z,-1.21
2019-01-24T12:04:53.470Z,-1.18
2019-01-24T12:05:53.453Z,-1.22
2019-01-24T12:06:53.347Z,-1.19
2019-01-24T12:07:53.375Z,-1.19
2019-01-24T12:08:53.149Z,-1.13
2019-01-24T12:09:53.262Z,-1.11
2019-01-24T12:10:53.455Z,-1.06
2019-01-24T12:11:54.044Z,-1.08
2019-01-24T12:12:53.358Z,-1.1
2019-01-24T12:13:53.288Z,-1.12
2019-01-24T12:14:53.480Z,-1.21
2019-01-24T12:15:53.281Z,-1.18
2019-01-24T12:16:53.135Z,-1.14
2019-01-24T12:17:53.166Z,-1.12
2019-01-24T12:18:53.329Z,-1.09
2019-01-24T12:19:54.995Z,-1.08
2019-01-24T12:20:53.238Z,-1.16
2019-01-24T12:21:53.706Z,-1.17
2019-01-24T12:22:53.531Z,-1.19
2019-01-24T12:23:53.754Z,-1.15
2019-01-24T12:24:53.144Z,-1.16
2019-01-24T12:25:53.349Z,-1.18
2019-01-24T12:26:53.517Z,-1.12
2019-01-24T12:27:54.087Z,-1.07
2019-01-24T12:28:53.191Z,-1.03
2019-01-24T12:29:53.260Z,-1
2019-01-24T12:30:53.267Z,-1.04
2019-01-24T12:31:52.906Z,-1.02
2019-01-24T12:32:53.619Z,-1
2019-01-24T12:33:53.687Z,-0.99
2019-01-24T12:34:53.152Z,-1.07
2019-01-24T12:35:53.397Z,-1.1
2019-01-24T12:36:56.915Z,-1.13
2019-01-24T12:37:53.173Z,-1.11
2019-01-24T12:38:53.869Z,-1.05
2019-01-24T12:39:53.489Z,-0.99
2019-01-24T12:40:53.430Z,-1.05
2019-01-24T12:41:53.120Z,-1.05
2019-01-24T12:42:53.563Z,-1.02
2019-01-24T12:43:53.102Z,-1.11
2019-01-24T12:44:53.180Z,-1.14
2019-01-24T12:45:53.781Z,-1.13
2019-01-24T12:46:53.380Z,-1.09
2019-01-24T12:47:53.431Z,-1.1
2019-01-24T12:48:53.512Z,-1.14
2019-01-24T12:49:53.164Z,-1.11
2019-01-24T12:50:53.526Z,-1.07
2019-01-24T12:51:53.327Z,-1.11
2019-01-24T12:52:53.173Z,-1.07
2019-01-24T12:53:53.106Z,-1.02
2019-01-24T12:54:53.052Z,-1.07
2019-01-24T12:55:53.153Z,-1.07
2019-01-24T12:56:53.113Z,-1.09
2019-01-24T12:57:53.375Z,-1.1
2019-01-24T12:59:08.009Z,-1.05
2019-01-24T12:59:54.302Z,-1.16
2019-01-24T13:00:53.389Z,-1.17
2019-01-24T13:01:53.288Z,-1.19
2019-01-24T13:02:54.929Z,-1.17